Terminal Aerodrome Forecast
Issued by NWS Sterling, VA

Current Version | Previous Version | Text Only | Print | Product List | Glossary Off
Versions: 1 2 3 4 5 6 7 8 9 10 11 12 13

000
FTUS41 KLWX 221100
TAFMRB
TAF
KMRB 221138Z 2212/2312 VRB03KT P6SM BKN150
     FM221400 26005KT P6SM -SHRA OVC050
     FM221600 26007KT 6SM -SHRA SCT035 OVC040
     FM221800 24007KT 5SM -SHRA VCTS SCT025CB OVC035CB
     FM222000 27011G18KT P6SM SCT020 BKN040
     FM222300 31013G24KT P6SM FEW035 SCT150
     FM230800 31015G28KT P6SM SCT150=

USA.gov is the U.S. government's official web portal to all federal, state and local government web resources and services.